sensor_id;sensor_type;location;lat;lon;timestamp;pressure;altitude;pressure_sealevel;temperature;humidity
50394;BME280;36308;46.312;25.288;2023-04-06T00:01:36;95563.50;;;2.92;68.95
50394;BME280;36308;46.312;25.288;2023-04-06T00:04:02;95564.53;;;2.91;68.98
50394;BME280;36308;46.312;25.288;2023-04-06T00:06:28;95563.75;;;2.91;68.77
50394;BME280;36308;46.312;25.288;2023-04-06T00:08:53;95562.09;;;2.90;69.08
50394;BME280;36308;46.312;25.288;2023-04-06T00:11:19;95554.34;;;2.88;69.31
50394;BME280;36308;46.312;25.288;2023-04-06T00:13:45;95553.53;;;2.88;68.75
50394;BME280;36308;46.312;25.288;2023-04-06T00:16:10;95554.00;;;2.85;69.66
50394;BME280;36308;46.312;25.288;2023-04-06T00:18:36;95547.06;;;2.83;68.87
50394;BME280;36308;46.312;25.288;2023-04-06T00:21:02;95551.34;;;2.85;69.67
50394;BME280;36308;46.312;25.288;2023-04-06T00:23:28;95553.16;;;2.84;69.26
50394;BME280;36308;46.312;25.288;2023-04-06T00:25:53;95544.59;;;2.82;68.89
50394;BME280;36308;46.312;25.288;2023-04-06T00:28:19;95538.50;;;2.81;69.71
50394;BME280;36308;46.312;25.288;2023-04-06T00:30:50;95528.09;;;2.80;69.69
50394;BME280;36308;46.312;25.288;2023-04-06T00:33:18;95528.34;;;2.78;69.79
50394;BME280;36308;46.312;25.288;2023-04-06T00:35:43;95532.59;;;2.79;69.36
50394;BME280;36308;46.312;25.288;2023-04-06T00:38:09;95523.03;;;2.78;69.40
50394;BME280;36308;46.312;25.288;2023-04-06T00:40:34;95526.47;;;2.79;69.80
50394;BME280;36308;46.312;25.288;2023-04-06T00:43:00;95520.13;;;2.80;69.03
50394;BME280;36308;46.312;25.288;2023-04-06T00:45:26;95516.88;;;2.78;69.55
50394;BME280;36308;46.312;25.288;2023-04-06T00:47:51;95515.66;;;2.80;70.06
50394;BME280;36308;46.312;25.288;2023-04-06T00:50:17;95515.66;;;2.80;69.87
50394;BME280;36308;46.312;25.288;2023-04-06T00:52:42;95519.31;;;2.79;69.92
50394;BME280;36308;46.312;25.288;2023-04-06T00:55:08;95510.75;;;2.77;69.84
50394;BME280;36308;46.312;25.288;2023-04-06T00:57:34;95506.94;;;2.73;69.47
50394;BME280;36308;46.312;25.288;2023-04-06T00:59:59;95513.28;;;2.72;69.26
50394;BME280;36308;46.312;25.288;2023-04-06T01:02:25;95508.41;;;2.69;69.88
50394;BME280;36308;46.312;25.288;2023-04-06T01:04:52;95502.28;;;2.69;69.73
50394;BME280;36308;46.312;25.288;2023-04-06T01:07:18;95506.34;;;2.71;69.91
50394;BME280;36308;46.312;25.288;2023-04-06T01:09:43;95492.25;;;2.71;69.74
50394;BME280;36308;46.312;25.288;2023-04-06T01:12:09;95495.72;;;2.71;70.21
50394;BME280;36308;46.312;25.288;2023-04-06T01:14:34;95493.06;;;2.71;69.68
50394;BME280;36308;46.312;25.288;2023-04-06T01:17:00;95484.50;;;2.69;69.89
50394;BME280;36308;46.312;25.288;2023-04-06T01:19:25;95482.66;;;2.70;69.70
50394;BME280;36308;46.312;25.288;2023-04-06T01:21:51;95485.56;;;2.68;70.30
50394;BME280;36308;46.312;25.288;2023-04-06T01:24:37;95491.09;;;2.67;70.03
50394;BME280;36308;46.312;25.288;2023-04-06T01:27:02;95483.13;;;2.67;70.49
50394;BME280;36308;46.312;25.288;2023-04-06T01:29:28;95477.44;;;2.63;69.69
50394;BME280;36308;46.312;25.288;2023-04-06T01:31:54;95479.50;;;2.61;70.33
50394;BME280;36308;46.312;25.288;2023-04-06T01:34:19;95484.00;;;2.60;70.32
50394;BME280;36308;46.312;25.288;2023-04-06T01:36:45;95470.94;;;2.59;69.56
50394;BME280;36308;46.312;25.288;2023-04-06T01:39:10;95477.88;;;2.60;69.63
50394;BME280;36308;46.312;25.288;2023-04-06T01:41:36;95477.88;;;2.60;69.63
50394;BME280;36308;46.312;25.288;2023-04-06T01:44:02;95475.44;;;2.58;70.40
50394;BME280;36308;46.312;25.288;2023-04-06T01:46:28;95473.00;;;2.57;70.24
50394;BME280;36308;46.312;25.288;2023-04-06T01:48:53;95471.41;;;2.56;70.53
50394;BME280;36308;46.312;25.288;2023-04-06T01:51:19;95455.91;;;2.53;70.32
50394;BME280;36308;46.312;25.288;2023-04-06T01:53:45;95462.06;;;2.53;69.84
50394;BME280;36308;46.312;25.288;2023-04-06T01:56:10;95460.19;;;2.54;69.77
50394;BME280;36308;46.312;25.288;2023-04-06T01:58:36;95452.25;;;2.54;70.83
50394;BME280;36308;46.312;25.288;2023-04-06T02:01:01;95453.84;;;2.55;70.13
50394;BME280;36308;46.312;25.288;2023-04-06T02:03:27;95455.69;;;2.54;70.12
50394;BME280;36308;46.312;25.288;2023-04-06T02:05:52;95450.59;;;2.53;70.50
50394;BME280;36308;46.312;25.288;2023-04-06T02:08:18;95452.66;;;2.51;70.73
50394;BME280;36308;46.312;25.288;2023-04-06T02:10:43;95447.34;;;2.51;69.91
50394;BME280;36308;46.312;25.288;2023-04-06T02:13:09;95445.97;;;2.48;70.09
50394;BME280;36308;46.312;25.288;2023-04-06T02:15:35;95437.41;;;2.46;70.74
50394;BME280;36308;46.312;25.288;2023-04-06T02:18:01;95438.47;;;2.45;70.75
50394;BME280;36308;46.312;25.288;2023-04-06T02:20:26;95427.00;;;2.45;70.90
50394;BME280;36308;46.312;25.288;2023-04-06T02:22:53;95428.88;;;2.44;70.68
50394;BME280;36308;46.312;25.288;2023-04-06T02:25:18;95433.38;;;2.43;71.06
50394;BME280;36308;46.312;25.288;2023-04-06T02:27:44;95434.38;;;2.42;71.17
50394;BME280;36308;46.312;25.288;2023-04-06T02:30:10;95430.72;;;2.43;70.76
50394;BME280;36308;46.312;25.288;2023-04-06T02:32:35;95434.38;;;2.42;71.15
50394;BME280;36308;46.312;25.288;2023-04-06T02:35:01;95431.97;;;2.41;70.78
50394;BME280;36308;46.312;25.288;2023-04-06T02:37:26;95431.59;;;2.37;70.39
50394;BME280;36308;46.312;25.288;2023-04-06T02:39:52;95429.59;;;2.33;69.97
50394;BME280;36308;46.312;25.288;2023-04-06T02:42:18;95423.94;;;2.29;70.44
50394;BME280;36308;46.312;25.288;2023-04-06T02:44:43;95421.50;;;2.28;70.50
50394;BME280;36308;46.312;25.288;2023-04-06T02:47:09;95426.41;;;2.24;69.99
50394;BME280;36308;46.312;25.288;2023-04-06T02:49:34;95426.66;;;2.22;70.05
50394;BME280;36308;46.312;25.288;2023-04-06T02:52:00;95425.81;;;2.22;69.92
50394;BME280;36308;46.312;25.288;2023-04-06T02:54:26;95427.06;;;2.19;70.07
50394;BME280;36308;46.312;25.288;2023-04-06T02:56:51;95431.00;;;2.17;70.15
50394;BME280;36308;46.312;25.288;2023-04-06T02:59:17;95429.38;;;2.16;69.90
50394;BME280;36308;46.312;25.288;2023-04-06T03:01:42;95432.25;;;2.14;70.83
50394;BME280;36308;46.312;25.288;2023-04-06T03:04:08;95420.25;;;2.12;70.20
50394;BME280;36308;46.312;25.288;2023-04-06T03:06:33;95426.56;;;2.11;70.56
50394;BME280;36308;46.312;25.288;2023-04-06T03:09:17;95424.94;;;2.10;70.63
50394;BME280;36308;46.312;25.288;2023-04-06T03:11:43;95423.91;;;2.11;70.42
50394;BME280;36308;46.312;25.288;2023-04-06T03:14:10;95419.41;;;2.11;70.23
50394;BME280;36308;46.312;25.288;2023-04-06T03:16:36;95429.41;;;2.09;69.98
50394;BME280;36308;46.312;25.288;2023-04-06T03:19:01;95430.69;;;2.07;70.15
50394;BME280;36308;46.312;25.288;2023-04-06T03:21:27;95425.38;;;2.07;70.61
50394;BME280;36308;46.312;25.288;2023-04-06T03:23:52;95429.06;;;2.06;69.90
50394;BME280;36308;46.312;25.288;2023-04-06T03:26:18;95432.72;;;2.05;69.86
50394;BME280;36308;46.312;25.288;2023-04-06T03:28:44;95435.38;;;2.05;69.99
50394;BME280;36308;46.312;25.288;2023-04-06T03:31:09;95429.50;;;2.02;69.45
50394;BME280;36308;46.312;25.288;2023-04-06T03:33:35;95426.25;;;2.00;70.18
50394;BME280;36308;46.312;25.288;2023-04-06T03:36:00;95429.94;;;1.99;69.76
50394;BME280;36308;46.312;25.288;2023-04-06T03:38:26;95428.75;;;1.95;69.66
50394;BME280;36308;46.312;25.288;2023-04-06T03:40:51;95423.66;;;1.94;69.62
50394;BME280;36308;46.312;25.288;2023-04-06T03:43:17;95434.47;;;1.92;69.73
50394;BME280;36308;46.312;25.288;2023-04-06T03:45:42;95432.03;;;1.91;69.72
50394;BME280;36308;46.312;25.288;2023-04-06T03:48:08;95432.03;;;1.91;70.34
50394;BME280;36308;46.312;25.288;2023-04-06T03:50:33;95428.59;;;1.90;69.93
50394;BME280;36308;46.312;25.288;2023-04-06T03:52:59;95428.59;;;1.90;70.01
50394;BME280;36308;46.312;25.288;2023-04-06T03:55:26;95425.13;;;1.90;70.69
50394;BME280;36308;46.312;25.288;2023-04-06T03:57:52;95427.56;;;1.91;70.35
50394;BME280;36308;46.312;25.288;2023-04-06T04:00:18;95433.88;;;1.90;70.37
50394;BME280;36308;46.312;25.288;2023-04-06T04:02:43;95435.72;;;1.90;70.04
50394;BME280;36308;46.312;25.288;2023-04-06T04:05:09;95435.13;;;1.88;69.98
50394;BME280;36308;46.312;25.288;2023-04-06T04:07:34;95436.97;;;1.87;69.86
50394;BME280;36308;46.312;25.288;2023-04-06T04:10:00;95433.75;;;1.85;69.79
50394;BME280;36308;46.312;25.288;2023-04-06T04:12:25;95435.81;;;1.83;70.27
50394;BME280;36308;46.312;25.288;2023-04-06T04:14:51;95433.56;;;1.80;70.12
50394;BME280;36308;46.312;25.288;2023-04-06T04:17:16;95439.91;;;1.79;70.24
50394;BME280;36308;46.312;25.288;2023-04-06T04:19:42;95445.63;;;1.76;70.62
50394;BME280;36308;46.312;25.288;2023-04-06T04:22:07;95437.09;;;1.74;70.21
50394;BME280;36308;46.312;25.288;2023-04-06T04:24:33;95438.94;;;1.73;69.94
50394;BME280;36308;46.312;25.288;2023-04-06T04:26:59;95432.22;;;1.71;70.41
50394;BME280;36308;46.312;25.288;2023-04-06T04:29:26;95447.31;;;1.70;70.35
50394;BME280;36308;46.312;25.288;2023-04-06T04:31:51;95440.59;;;1.68;70.00
50394;BME280;36308;46.312;25.288;2023-04-06T04:34:18;95442.06;;;1.64;69.79
50394;BME280;36308;46.312;25.288;2023-04-06T04:36:46;95446.75;;;1.61;69.78
50394;BME280;36308;46.312;25.288;2023-04-06T04:39:11;95443.31;;;1.61;69.82
50394;BME280;36308;46.312;25.288;2023-04-06T04:41:37;95442.91;;;1.57;70.46
50394;BME280;36308;46.312;25.288;2023-04-06T04:44:02;95441.50;;;1.55;69.65
50394;BME280;36308;46.312;25.288;2023-04-06T04:46:28;95447.03;;;1.53;70.33
50394;BME280;36308;46.312;25.288;2023-04-06T04:49:12;95452.75;;;1.50;70.16
50394;BME280;36308;46.312;25.288;2023-04-06T04:51:37;95436.06;;;1.50;69.69
50394;BME280;36308;46.312;25.288;2023-04-06T04:54:03;95444.22;;;1.48;69.89
50394;BME280;36308;46.312;25.288;2023-04-06T04:56:28;95446.28;;;1.46;70.08
50394;BME280;36308;46.312;25.288;2023-04-06T04:58:54;95448.31;;;1.44;69.89
50394;BME280;36308;46.312;25.288;2023-04-06T05:01:20;95445.06;;;1.42;69.84
50394;BME280;36308;46.312;25.288;2023-04-06T05:03:46;95452.44;;;1.40;70.06
50394;BME280;36308;46.312;25.288;2023-04-06T05:06:11;95449.19;;;1.38;70.11
50394;BME280;36308;46.312;25.288;2023-04-06T05:08:36;95453.66;;;1.37;69.86
50394;BME280;36308;46.312;25.288;2023-04-06T05:11:02;95451.22;;;1.36;70.10
50394;BME280;36308;46.312;25.288;2023-04-06T05:13:30;95454.88;;;1.35;69.98
50394;BME280;36308;46.312;25.288;2023-04-06T05:15:55;95454.28;;;1.33;70.19
50394;BME280;36308;46.312;25.288;2023-04-06T05:18:21;95455.31;;;1.32;69.84
50394;BME280;36308;46.312;25.288;2023-04-06T05:20:47;95452.09;;;1.30;69.96
50394;BME280;36308;46.312;25.288;2023-04-06T05:23:12;95452.53;;;1.27;70.01
50394;BME280;36308;46.312;25.288;2023-04-06T05:25:38;95452.53;;;1.27;69.51
50394;BME280;36308;46.312;25.288;2023-04-06T05:28:03;95452.13;;;1.23;69.71
50394;BME280;36308;46.312;25.288;2023-04-06T05:30:29;95451.53;;;1.21;70.38
50394;BME280;36308;46.312;25.288;2023-04-06T05:32:55;95446.44;;;1.19;70.36
50394;BME280;36308;46.312;25.288;2023-04-06T05:35:20;95448.50;;;1.17;70.42
50394;BME280;36308;46.312;25.288;2023-04-06T05:37:46;95450.13;;;1.18;69.98
50394;BME280;36308;46.312;25.288;2023-04-06T05:40:12;95450.13;;;1.18;70.12
50394;BME280;36308;46.312;25.288;2023-04-06T05:42:38;95440.34;;;1.19;70.44
50394;BME280;36308;46.312;25.288;2023-04-06T05:45:05;95450.72;;;1.20;70.32
50394;BME280;36308;46.312;25.288;2023-04-06T05:47:31;95449.69;;;1.21;70.26
50394;BME280;36308;46.312;25.288;2023-04-06T05:49:57;95452.88;;;1.30;71.06
50394;BME280;36308;46.312;25.288;2023-04-06T05:52:22;95450.97;;;1.44;71.14
50394;BME280;36308;46.312;25.288;2023-04-06T05:54:48;95454.56;;;1.56;71.54
50394;BME280;36308;46.312;25.288;2023-04-06T05:57:13;95456.72;;;1.66;70.50
50394;BME280;36308;46.312;25.288;2023-04-06T05:59:39;95455.03;;;1.72;70.31
50394;BME280;36308;46.312;25.288;2023-04-06T06:02:04;95447.69;;;1.74;69.86
50394;BME280;36308;46.312;25.288;2023-04-06T06:04:30;95446.88;;;1.73;69.75
50394;BME280;36308;46.312;25.288;2023-04-06T06:06:56;95444.88;;;1.69;68.96
50394;BME280;36308;46.312;25.288;2023-04-06T06:09:22;95444.09;;;1.68;68.94
50394;BME280;36308;46.312;25.288;2023-04-06T06:11:48;95441.63;;;1.67;69.35
50394;BME280;36308;46.312;25.288;2023-04-06T06:14:14;95441.03;;;1.65;68.67
50394;BME280;36308;46.312;25.288;2023-04-06T06:16:40;95440.44;;;1.63;69.17
50394;BME280;36308;46.312;25.288;2023-04-06T06:19:06;95439.66;;;1.55;68.67
50394;BME280;36308;46.312;25.288;2023-04-06T06:21:31;95445.41;;;1.52;69.02
50394;BME280;36308;46.312;25.288;2023-04-06T06:23:57;95442.16;;;1.50;69.14
50394;BME280;36308;46.312;25.288;2023-04-06T06:26:22;95431.19;;;1.47;68.54
50394;BME280;36308;46.312;25.288;2023-04-06T06:28:48;95435.88;;;1.45;68.94
50394;BME280;36308;46.312;25.288;2023-04-06T06:31:14;95428.78;;;1.38;68.41
50394;BME280;36308;46.312;25.288;2023-04-06T06:33:39;95433.09;;;1.33;69.21
50394;BME280;36308;46.312;25.288;2023-04-06T06:36:05;95431.34;;;1.27;69.15
50394;BME280;36308;46.312;25.288;2023-04-06T06:38:30;95425.44;;;1.25;68.93
50394;BME280;36308;46.312;25.288;2023-04-06T06:40:56;95430.16;;;1.23;69.63
50394;BME280;36308;46.312;25.288;2023-04-06T06:43:21;95431.16;;;1.21;69.73
50394;BME280;36308;46.312;25.288;2023-04-06T06:45:47;95427.31;;;1.17;69.61
50394;BME280;36308;46.312;25.288;2023-04-06T06:48:13;95430.16;;;1.23;70.13
50394;BME280;36308;46.312;25.288;2023-04-06T06:50:38;95431.75;;;1.24;70.00
50394;BME280;36308;46.312;25.288;2023-04-06T06:53:04;95431.34;;;1.27;70.12
50394;BME280;36308;46.312;25.288;2023-04-06T06:55:29;95431.09;;;1.28;70.19
50394;BME280;36308;46.312;25.288;2023-04-06T06:57:55;95440.69;;;1.29;69.64
50394;BME280;36308;46.312;25.288;2023-04-06T07:00:20;95429.28;;;1.29;69.63
50394;BME280;36308;46.312;25.288;2023-04-06T07:02:49;95432.94;;;1.28;69.95
50394;BME280;36308;46.312;25.288;2023-04-06T07:05:15;95438.84;;;1.30;70.21
50394;BME280;36308;46.312;25.288;2023-04-06T07:07:41;95441.06;;;1.33;70.10
50394;BME280;36308;46.312;25.288;2023-04-06T07:10:07;95440.44;;;1.37;70.45
50394;BME280;36308;46.312;25.288;2023-04-06T07:12:33;95445.50;;;1.39;70.40
50394;BME280;36308;46.312;25.288;2023-04-06T07:14:58;95440.59;;;1.42;70.28
50394;BME280;36308;46.312;25.288;2023-04-06T07:17:24;95435.47;;;1.48;69.86
50394;BME280;36308;46.312;25.288;2023-04-06T07:19:49;95447.84;;;1.54;70.39
50394;BME280;36308;46.312;25.288;2023-04-06T07:22:15;95440.88;;;1.59;70.32
50394;BME280;36308;46.312;25.288;2023-04-06T07:28:03;95441.03;;;1.65;69.89
50394;BME280;36308;46.312;25.288;2023-04-06T07:30:29;95441.19;;;1.70;69.69
50394;BME280;36308;46.312;25.288;2023-04-06T07:32:55;95445.03;;;1.74;70.29
50394;BME280;36308;46.312;25.288;2023-04-06T07:35:25;95439.91;;;1.79;70.38
50394;BME280;36308;46.312;25.288;2023-04-06T07:37:52;95435.81;;;1.83;69.57
50394;BME280;36308;46.312;25.288;2023-04-06T07:40:17;95434.75;;;1.84;69.88
50394;BME280;36308;46.312;25.288;2023-04-06T07:42:45;95436.53;;;1.90;69.53
50394;BME280;36308;46.312;25.288;2023-04-06T07:45:10;95438.53;;;1.95;69.28
50394;BME280;36308;46.312;25.288;2023-04-06T07:47:36;95438.09;;;1.98;69.64
50394;BME280;36308;46.312;25.288;2023-04-06T07:50:02;95441.34;;;2.00;69.48
50394;BME280;36308;46.312;25.288;2023-04-06T07:52:27;95446.00;;;2.05;69.06
50394;BME280;36308;46.312;25.288;2023-04-06T07:54:53;95437.63;;;2.08;69.49
50394;BME280;36308;46.312;25.288;2023-04-06T07:57:18;95443.06;;;2.13;69.63
50394;BME280;36308;46.312;25.288;2023-04-06T07:59:44;95449.75;;;2.15;69.10
50394;BME280;36308;46.312;25.288;2023-04-06T08:02:09;95448.53;;;2.18;69.53
50394;BME280;36308;46.312;25.288;2023-04-06T08:04:35;95438.72;;;2.18;68.77
50394;BME280;36308;46.312;25.288;2023-04-06T08:07:01;95446.44;;;2.20;68.25
50394;BME280;36308;46.312;25.288;2023-04-06T08:12:29;95445.66;;;2.19;67.99
50394;BME280;36308;46.312;25.288;2023-04-06T08:14:55;95443.59;;;2.21;67.92
50394;BME280;36308;46.312;25.288;2023-04-06T08:17:25;95452.50;;;2.27;68.12
50394;BME280;36308;46.312;25.288;2023-04-06T08:19:50;95441.81;;;2.34;69.00
50394;BME280;36308;46.312;25.288;2023-04-06T08:22:16;95447.06;;;2.40;68.95
50394;BME280;36308;46.312;25.288;2023-04-06T08:24:41;95443.31;;;2.48;68.57
50394;BME280;36308;46.312;25.288;2023-04-06T08:27:07;95439.97;;;2.53;68.41
50394;BME280;36308;46.312;25.288;2023-04-06T08:29:33;95444.28;;;2.54;67.68
50394;BME280;36308;46.312;25.288;2023-04-06T08:31:58;95441.75;;;2.59;68.20
50394;BME280;36308;46.312;25.288;2023-04-06T08:34:24;95440.28;;;2.63;68.17
50394;BME280;36308;46.312;25.288;2023-04-06T08:36:50;95446.34;;;2.70;68.17
50394;BME280;36308;46.312;25.288;2023-04-06T08:39:15;95444.69;;;2.69;67.13
50394;BME280;36308;46.312;25.288;2023-04-06T08:41:41;95449.41;;;2.67;67.42
50394;BME280;36308;46.312;25.288;2023-04-06T08:44:07;95446.97;;;2.66;66.85
50394;BME280;36308;46.312;25.288;2023-04-06T08:46:33;95436.38;;;2.66;66.84
50394;BME280;36308;46.312;25.288;2023-04-06T08:49:02;95448.41;;;2.68;67.20
50394;BME280;36308;46.312;25.288;2023-04-06T08:51:29;95440.56;;;2.73;67.42
50394;BME280;36308;46.312;25.288;2023-04-06T08:53:58;95439.69;;;2.79;67.23
50394;BME280;36308;46.312;25.288;2023-04-06T08:56:25;95439.97;;;2.90;67.88
50394;BME280;36308;46.312;25.288;2023-04-06T08:58:52;95439.06;;;2.96;67.71
50394;BME280;36308;46.312;25.288;2023-04-06T09:01:21;95431.69;;;2.98;67.56
50394;BME280;36308;46.312;25.288;2023-04-06T09:03:49;95444.06;;;3.04;67.05
50394;BME280;36308;46.312;25.288;2023-04-06T09:06:15;95440.31;;;3.12;66.90
50394;BME280;36308;46.312;25.288;2023-04-06T09:08:41;95447.59;;;3.16;66.42
50394;BME280;36308;46.312;25.288;2023-04-06T09:11:07;95442.38;;;3.21;66.85
50394;BME280;36308;46.312;25.288;2023-04-06T09:16:12;95447.97;;;3.32;65.90
50394;BME280;36308;46.312;25.288;2023-04-06T09:18:38;95441.63;;;3.33;66.48
50394;BME280;36308;46.312;25.288;2023-04-06T09:21:05;95446.28;;;3.37;65.68
50394;BME280;36308;46.312;25.288;2023-04-06T09:23:31;95444.56;;;3.43;66.43
50394;BME280;36308;46.312;25.288;2023-04-06T09:26:13;95447.81;;;3.45;66.35
50394;BME280;36308;46.312;25.288;2023-04-06T09:28:54;95440.41;;;3.47;65.64
50394;BME280;36308;46.312;25.288;2023-04-06T09:31:28;95443.06;;;3.47;65.00
50394;BME280;36308;46.312;25.288;2023-04-06T09:33:56;95440.63;;;3.46;65.02
50394;BME280;36308;46.312;25.288;2023-04-06T09:36:32;95442.47;;;3.45;65.68
50394;BME280;36308;46.312;25.288;2023-04-06T09:39:01;95450.25;;;3.47;65.35
50394;BME280;36308;46.312;25.288;2023-04-06T09:41:31;95447.81;;;3.45;64.76
50394;BME280;36308;46.312;25.288;2023-04-06T09:44:11;95451.81;;;3.36;64.15
50394;BME280;36308;46.312;25.288;2023-04-06T09:46:42;95453.28;;;3.32;64.46
50394;BME280;36308;46.312;25.288;2023-04-06T09:49:09;95448.44;;;3.29;64.02
50394;BME280;36308;46.312;25.288;2023-04-06T09:51:40;95454.19;;;3.26;64.71
50394;BME280;36308;46.312;25.288;2023-04-06T09:54:07;95447.72;;;3.21;64.67
50394;BME280;36308;46.312;25.288;2023-04-06T09:56:45;95450.03;;;3.18;64.29
50394;BME280;36308;46.312;25.288;2023-04-06T09:59:21;95453.13;;;3.15;64.69
50394;BME280;36308;46.312;25.288;2023-04-06T10:01:51;95455.41;;;3.11;64.30
50394;BME280;36308;46.312;25.288;2023-04-06T10:06:55;95454.38;;;3.12;64.40
50394;BME280;36308;46.312;25.288;2023-04-06T10:09:24;95462.56;;;3.11;64.65
50394;BME280;36308;46.312;25.288;2023-04-06T10:11:51;95472.38;;;3.10;64.21
50394;BME280;36308;46.312;25.288;2023-04-06T10:14:17;95470.16;;;3.07;63.69
50394;BME280;36308;46.312;25.288;2023-04-06T10:16:42;95470.63;;;3.04;64.18
50394;BME280;36308;46.312;25.288;2023-04-06T10:19:24;95464.16;;;3.00;63.79
50394;BME280;36308;46.312;25.288;2023-04-06T10:21:53;95466.66;;;2.95;64.16
50394;BME280;36308;46.312;25.288;2023-04-06T10:24:20;95469.75;;;2.92;64.07
50394;BME280;36308;46.312;25.288;2023-04-06T10:27:01;95474.69;;;2.88;64.37
50394;BME280;36308;46.312;25.288;2023-04-06T10:29:27;95465.34;;;2.86;63.65
50394;BME280;36308;46.312;25.288;2023-04-06T10:31:53;95473.09;;;2.87;64.59
50394;BME280;36308;46.312;25.288;2023-04-06T10:34:20;95470.81;;;2.91;64.23
50394;BME280;36308;46.312;25.288;2023-04-06T10:36:46;95464.00;;;2.95;64.62
50394;BME280;36308;46.312;25.288;2023-04-06T10:39:11;95472.91;;;3.00;64.79
50394;BME280;36308;46.312;25.288;2023-04-06T10:41:45;95469.03;;;3.03;64.77
50394;BME280;36308;46.312;25.288;2023-04-06T10:44:25;95471.22;;;3.06;64.86
50394;BME280;36308;46.312;25.288;2023-04-06T10:46:58;95471.94;;;3.13;65.21
50394;BME280;36308;46.312;25.288;2023-04-06T10:49:26;95466.19;;;3.16;64.57
50394;BME280;36308;46.312;25.288;2023-04-06T10:51:54;95464.31;;;3.17;64.33
50394;BME280;36308;46.312;25.288;2023-04-06T10:54:25;95464.09;;;3.18;64.38
50394;BME280;36308;46.312;25.288;2023-04-06T10:56:51;95465.72;;;3.19;64.25
50394;BME280;36308;46.312;25.288;2023-04-06T10:59:20;95466.31;;;3.21;65.11
50394;BME280;36308;46.312;25.288;2023-04-06T11:01:46;95463.06;;;3.19;64.74
50394;BME280;36308;46.312;25.288;2023-04-06T11:04:16;95467.72;;;3.24;64.65
50394;BME280;36308;46.312;25.288;2023-04-06T11:06:47;95479.16;;;3.24;64.39
50394;BME280;36308;46.312;25.288;2023-04-06T11:09:27;95472.19;;;3.23;64.45
50394;BME280;36308;46.312;25.288;2023-04-06T11:11:53;95470.38;;;3.24;64.96
50394;BME280;36308;46.312;25.288;2023-04-06T11:14:19;95470.13;;;3.26;65.20
50394;BME280;36308;46.312;25.288;2023-04-06T11:16:46;95477.66;;;3.29;64.89
50394;BME280;36308;46.312;25.288;2023-04-06T11:19:15;95481.94;;;3.30;64.64
50394;BME280;36308;46.312;25.288;2023-04-06T11:21:42;95473.97;;;3.30;64.44
50394;BME280;36308;46.312;25.288;2023-04-06T11:24:17;95475.81;;;3.29;64.91
50394;BME280;36308;46.312;25.288;2023-04-06T11:27:04;95477.78;;;3.34;64.54
50394;BME280;36308;46.312;25.288;2023-04-06T11:29:31;95480.59;;;3.39;65.14
50394;BME280;36308;46.312;25.288;2023-04-06T11:32:04;95477.47;;;3.42;64.24
50394;BME280;36308;46.312;25.288;2023-04-06T11:34:34;95483.84;;;3.41;64.43
50394;BME280;36308;46.312;25.288;2023-04-06T11:37:03;95487.50;;;3.40;64.29
50394;BME280;36308;46.312;25.288;2023-04-06T11:39:31;95484.84;;;3.40;64.38
50394;BME280;36308;46.312;25.288;2023-04-06T11:41:59;95479.91;;;3.43;64.81
50394;BME280;36308;46.312;25.288;2023-04-06T11:44:38;95485.38;;;3.49;65.25
50394;BME280;36308;46.312;25.288;2023-04-06T11:47:10;95485.28;;;3.55;65.33
50394;BME280;36308;46.312;25.288;2023-04-06T11:49:42;95488.84;;;3.61;64.57
50394;BME280;36308;46.312;25.288;2023-04-06T11:54:46;95486.56;;;3.64;63.96
50394;BME280;36308;46.312;25.288;2023-04-06T11:57:12;95494.09;;;3.68;63.85
50394;BME280;36308;46.312;25.288;2023-04-06T11:59:38;95489.94;;;3.72;64.81
50394;BME280;36308;46.312;25.288;2023-04-06T12:02:04;95482.88;;;3.77;64.85
50394;BME280;36308;46.312;25.288;2023-04-06T12:04:30;95489.16;;;3.83;64.44
50394;BME280;36308;46.312;25.288;2023-04-06T12:06:56;95490.88;;;3.89;64.03
50394;BME280;36308;46.312;25.288;2023-04-06T12:09:22;95486.16;;;3.91;64.13
50394;BME280;36308;46.312;25.288;2023-04-06T12:11:47;95490.78;;;3.96;64.43
50394;BME280;36308;46.312;25.288;2023-04-06T12:14:13;95495.66;;;3.99;64.08
50394;BME280;36308;46.312;25.288;2023-04-06T12:16:39;95491.94;;;4.00;64.05
50394;BME280;36308;46.312;25.288;2023-04-06T12:19:08;95488.00;;;4.02;63.51
50394;BME280;36308;46.312;25.288;2023-04-06T12:21:35;95486.19;;;4.03;63.38
50394;BME280;36308;46.312;25.288;2023-04-06T12:24:03;95486.97;;;4.03;63.67
50394;BME280;36308;46.312;25.288;2023-04-06T12:26:29;95490.44;;;4.04;63.88
50394;BME280;36308;46.312;25.288;2023-04-06T12:28:55;95495.53;;;4.05;63.98
50394;BME280;36308;46.312;25.288;2023-04-06T12:31:21;95498.78;;;4.08;63.57
50394;BME280;36308;46.312;25.288;2023-04-06T12:33:51;95497.97;;;4.07;63.57
50394;BME280;36308;46.312;25.288;2023-04-06T12:36:19;95495.06;;;4.09;63.68
50394;BME280;36308;46.312;25.288;2023-04-06T12:38:48;95499.16;;;4.11;63.93
50394;BME280;36308;46.312;25.288;2023-04-06T12:41:14;95498.66;;;4.14;63.89
50394;BME280;36308;46.312;25.288;2023-04-06T12:43:42;95495.78;;;4.16;63.94
50394;BME280;36308;46.312;25.288;2023-04-06T12:46:09;95502.72;;;4.17;64.15
50394;BME280;36308;46.312;25.288;2023-04-06T12:48:35;95504.34;;;4.18;63.56
50394;BME280;36308;46.312;25.288;2023-04-06T12:51:03;95503.53;;;4.17;62.91
50394;BME280;36308;46.312;25.288;2023-04-06T12:53:29;95504.78;;;4.15;63.54
50394;BME280;36308;46.312;25.288;2023-04-06T12:55:55;95502.13;;;4.15;63.13
50394;BME280;36308;46.312;25.288;2023-04-06T12:58:22;95502.13;;;4.15;63.63
50394;BME280;36308;46.312;25.288;2023-04-06T13:00:49;95500.63;;;4.19;63.33
50394;BME280;36308;46.312;25.288;2023-04-06T13:03:18;95507.13;;;4.23;64.23
50394;BME280;36308;46.312;25.288;2023-04-06T13:05:45;95498.91;;;4.24;63.86
50394;BME280;36308;46.312;25.288;2023-04-06T13:08:11;95496.03;;;4.26;63.79
50394;BME280;36308;46.312;25.288;2023-04-06T13:10:37;95506.78;;;4.31;63.07
50394;BME280;36308;46.312;25.288;2023-04-06T13:13:03;95507.34;;;4.33;63.23